Time;durP1;ratioP1;P1;durP2;ratioP2;P2;SDS_P1;SDS_P2;PMS_P1;PMS_P2;Temp;Humidity;BMP_temperature;BMP_pressure;BME280_temperature;BME280_humidity;BME280_pressure;Samples;Min_cycle;Max_cycle;Signal;HPM_P1;HPM_P2
2021/12/30 00:01:48;;;;;;;3.53;2.42;;;9.80;94.80;;;;;;4993936;28;20859;-79
2021/12/30 00:04:13;;;;;;;2.47;2.20;;;9.80;94.80;;;;;;4988253;28;20655;-79
2021/12/30 00:07:08;;;;;;;2.90;2.60;;;9.80;94.70;;;;;;5007487;28;20049;-82
2021/12/30 00:09:31;;;;;;;2.97;2.28;;;9.80;94.80;;;;;;4999391;28;20021;-79
2021/12/30 00:11:56;;;;;;;2.38;2.13;;;9.80;94.70;;;;;;5027204;28;20049;-79
2021/12/30 00:14:22;;;;;;;3.65;1.70;;;9.80;94.70;;;;;;5006339;28;20038;-79
2021/12/30 00:16:47;;;;;;;1.98;0.95;;;9.80;94.70;;;;;;5006387;28;20475;-78
2021/12/30 00:19:13;;;;;;;1.30;0.90;;;9.80;94.80;;;;;;5021163;28;20380;-78
2021/12/30 00:21:39;;;;;;;1.33;0.60;;;9.80;94.80;;;;;;5004791;28;20408;-79
2021/12/30 00:24:05;;;;;;;0.77;0.50;;;9.90;94.90;;;;;;5019979;28;20029;-78
2021/12/30 00:26:31;;;;;;;2.08;0.63;;;9.90;94.90;;;;;;5005917;28;20039;-79
2021/12/30 00:28:56;;;;;;;0.85;0.60;;;10.00;95.00;;;;;;5009688;28;20052;-78
2021/12/30 00:31:22;;;;;;;1.50;0.50;;;10.00;95.00;;;;;;5021610;28;20041;-78
2021/12/30 00:33:47;;;;;;;1.85;0.50;;;10.10;95.10;;;;;;5001929;28;20045;-78
2021/12/30 00:36:13;;;;;;;0.40;0.40;;;10.10;95.00;;;;;;5001064;28;20068;-78
2021/12/30 00:38:40;;;;;;;1.67;0.40;;;10.20;95.10;;;;;;5011715;28;20508;-78
2021/12/30 00:41:07;;;;;;;2.28;0.43;;;10.20;95.10;;;;;;5017897;28;20046;-78
2021/12/30 00:43:32;;;;;;;0.38;0.38;;;10.30;95.10;;;;;;5019679;28;20037;-80
2021/12/30 00:45:58;;;;;;;1.02;0.60;;;10.30;95.10;;;;;;5001524;28;20091;-79
2021/12/30 00:48:25;;;;;;;0.55;0.50;;;10.40;95.20;;;;;;4977439;28;20041;-78
2021/12/30 00:50:50;;;;;;;1.10;0.55;;;10.40;95.20;;;;;;5033335;28;20152;-79
2021/12/30 00:53:16;;;;;;;1.02;0.60;;;10.50;95.20;;;;;;5002690;28;20129;-78
2021/12/30 00:55:41;;;;;;;0.93;0.50;;;10.50;95.20;;;;;;5027735;28;20041;-78
2021/12/30 00:58:07;;;;;;;1.02;0.50;;;10.60;95.20;;;;;;5018341;28;20076;-78
2021/12/30 01:00:33;;;;;;;2.65;0.70;;;10.60;95.20;;;;;;4998429;28;20033;-79
2021/12/30 01:02:59;;;;;;;1.10;0.73;;;10.60;95.20;;;;;;5015114;28;20537;-79
2021/12/30 01:05:25;;;;;;;3.20;0.65;;;10.70;95.20;;;;;;5014999;28;20124;-78
2021/12/30 01:07:50;;;;;;;1.40;0.43;;;10.70;95.30;;;;;;5035190;28;20102;-78
2021/12/30 01:10:17;;;;;;;0.80;0.50;;;10.80;95.70;;;;;;4999358;28;20034;-79
2021/12/30 01:12:43;;;;;;;1.10;0.50;;;10.80;95.30;;;;;;5002191;28;20061;-80
2021/12/30 01:15:10;;;;;;;0.88;0.45;;;10.80;95.30;;;;;;5025501;28;20063;-79
2021/12/30 01:18:10;;;;;;;2.88;0.88;;;10.90;95.30;;;;;;5021577;28;20037;-79
2021/12/30 01:20:25;;;;;;;1.92;0.50;;;10.90;95.30;;;;;;5021007;28;20119;-79
2021/12/30 01:22:51;;;;;;;0.90;0.52;;;10.90;95.30;;;;;;5003936;28;20037;-79
2021/12/30 01:25:17;;;;;;;2.85;0.70;;;10.90;95.30;;;;;;5018669;28;20072;-78
2021/12/30 01:27:43;;;;;;;0.88;0.60;;;10.90;95.30;;;;;;5016268;28;20057;-79
2021/12/30 01:30:12;;;;;;;3.35;0.95;;;11.00;95.30;;;;;;5000666;28;20052;-79
2021/12/30 01:32:37;;;;;;;1.42;0.50;;;11.00;95.30;;;;;;5002826;28;20062;-79
2021/12/30 01:35:04;;;;;;;2.40;0.50;;;11.00;95.20;;;;;;5025702;28;20711;-78
2021/12/30 01:37:30;;;;;;;1.60;0.50;;;11.00;95.20;;;;;;5004772;28;20045;-78
2021/12/30 01:39:56;;;;;;;1.25;0.60;;;11.00;95.20;;;;;;4999925;28;20029;-79
2021/12/30 01:42:22;;;;;;;1.42;0.60;;;11.00;95.20;;;;;;5024994;28;20047;-79
2021/12/30 01:44:48;;;;;;;2.45;0.60;;;11.00;95.20;;;;;;5002454;28;20065;-78
2021/12/30 01:47:14;;;;;;;3.08;0.60;;;11.00;95.20;;;;;;4985094;28;20123;-79
2021/12/30 01:49:39;;;;;;;1.73;0.60;;;11.00;95.20;;;;;;5008194;28;20032;-79
2021/12/30 01:52:05;;;;;;;0.65;0.50;;;11.00;95.20;;;;;;5009725;28;20032;-78
2021/12/30 01:54:31;;;;;;;2.22;0.60;;;11.00;95.20;;;;;;5000416;28;20045;-78
2021/12/30 01:57:00;;;;;;;2.45;0.57;;;11.10;95.20;;;;;;4993094;28;20627;-79
2021/12/30 01:59:25;;;;;;;0.70;0.50;;;11.00;95.10;;;;;;5002124;28;20029;-78
2021/12/30 02:01:56;;;;;;;2.03;0.50;;;11.00;95.10;;;;;;5014927;28;20037;-79
2021/12/30 02:04:26;;;;;;;1.67;0.70;;;11.00;95.10;;;;;;4998270;28;20076;-78
2021/12/30 02:06:52;;;;;;;1.80;0.43;;;11.00;95.00;;;;;;5017861;28;20033;-79
2021/12/30 02:09:19;;;;;;;1.98;0.40;;;11.00;95.00;;;;;;5003008;28;20578;-79
2021/12/30 02:11:45;;;;;;;0.93;0.50;;;11.00;95.00;;;;;;5012865;28;20367;-79
2021/12/30 02:14:10;;;;;;;0.70;0.55;;;11.00;95.00;;;;;;5012552;28;20037;-79
2021/12/30 02:16:37;;;;;;;1.23;0.50;;;11.00;95.00;;;;;;5020316;28;20413;-79
2021/12/30 02:19:02;;;;;;;1.08;0.40;;;10.90;94.90;;;;;;5016766;28;20145;-78
2021/12/30 02:21:28;;;;;;;1.33;0.50;;;10.90;94.90;;;;;;5019139;28;20370;-79
2021/12/30 02:23:54;;;;;;;0.63;0.50;;;10.90;94.90;;;;;;5020390;28;20033;-78
2021/12/30 02:26:19;;;;;;;2.65;0.80;;;10.90;94.90;;;;;;5005875;28;20093;-79
2021/12/30 02:28:45;;;;;;;1.98;0.93;;;10.90;94.80;;;;;;5019681;28;20569;-78
2021/12/30 02:31:13;;;;;;;1.77;0.52;;;10.90;94.80;;;;;;5026064;28;20059;-80
2021/12/30 02:33:39;;;;;;;5.40;1.35;;;10.80;94.80;;;;;;5008040;28;20033;-79
2021/12/30 02:36:05;;;;;;;4.15;0.60;;;10.80;94.70;;;;;;5002402;28;20110;-79
2021/12/30 02:38:30;;;;;;;2.88;0.60;;;10.80;94.70;;;;;;5021877;28;20063;-79
2021/12/30 02:40:57;;;;;;;3.30;0.65;;;10.80;94.70;;;;;;4997925;28;21954;-78
2021/12/30 02:43:25;;;;;;;3.22;0.70;;;10.80;94.70;;;;;;4991501;28;20519;-78
2021/12/30 02:45:51;;;;;;;2.60;0.77;;;10.80;94.70;;;;;;5026444;28;20345;-78
2021/12/30 02:48:21;;;;;;;1.77;0.50;;;10.80;94.70;;;;;;5010920;28;20116;-79
2021/12/30 02:50:48;;;;;;;3.30;0.73;;;10.80;94.60;;;;;;5015955;28;20037;-78
2021/12/30 02:53:13;;;;;;;1.48;0.63;;;10.80;94.60;;;;;;5020267;28;20033;-79
2021/12/30 02:55:39;;;;;;;3.45;0.50;;;10.70;94.50;;;;;;5016983;28;20941;-79
2021/12/30 02:58:05;;;;;;;3.92;0.75;;;10.70;94.50;;;;;;5009521;28;20030;-79
2021/12/30 03:00:31;;;;;;;2.05;0.52;;;10.70;94.50;;;;;;5022403;28;20030;-79
2021/12/30 03:02:57;;;;;;;1.33;0.70;;;10.60;94.50;;;;;;4993309;28;20075;-79
2021/12/30 03:05:24;;;;;;;3.60;0.70;;;10.60;94.40;;;;;;5019236;28;20534;-79
2021/12/30 03:07:50;;;;;;;1.17;0.50;;;10.60;94.40;;;;;;5027762;28;20030;-79
2021/12/30 03:10:18;;;;;;;1.85;0.80;;;10.50;94.40;;;;;;5026734;28;20036;-79
2021/12/30 03:12:44;;;;;;;2.20;0.45;;;10.50;94.40;;;;;;5007120;28;20034;-79
2021/12/30 03:15:13;;;;;;;3.35;0.50;;;10.50;94.40;;;;;;5016584;28;20033;-78
2021/12/30 03:17:39;;;;;;;2.22;0.90;;;10.50;94.40;;;;;;5025841;28;20028;-78
2021/12/30 03:20:09;;;;;;;3.60;0.75;;;10.40;94.40;;;;;;4990532;28;20029;-78
2021/12/30 03:22:35;;;;;;;5.07;0.80;;;10.40;94.40;;;;;;5018716;28;20053;-79
2021/12/30 03:25:01;;;;;;;6.45;1.20;;;10.50;94.40;;;;;;5012855;28;20026;-79
2021/12/30 03:27:27;;;;;;;3.28;0.98;;;10.40;94.40;;;;;;5005482;28;20036;-79
2021/12/30 03:29:52;;;;;;;1.45;0.70;;;10.50;94.40;;;;;;5019441;28;20041;-78
2021/12/30 03:32:18;;;;;;;2.33;0.80;;;10.50;94.40;;;;;;5021798;28;20025;-79
2021/12/30 03:34:43;;;;;;;3.50;1.00;;;10.40;94.30;;;;;;5026376;28;20524;-79
2021/12/30 03:37:09;;;;;;;4.50;1.40;;;10.40;94.30;;;;;;5019530;28;20052;-78
2021/12/30 03:39:34;;;;;;;4.15;0.90;;;10.40;94.30;;;;;;5028273;28;20039;-79
2021/12/30 03:42:00;;;;;;;3.40;1.02;;;10.40;94.30;;;;;;5029466;28;20543;-78
2021/12/30 03:44:25;;;;;;;6.10;0.95;;;10.40;94.20;;;;;;5023804;28;20037;-78
2021/12/30 03:46:51;;;;;;;6.32;1.20;;;10.40;94.20;;;;;;5013353;28;20113;-79
2021/12/30 03:49:16;;;;;;;5.55;0.75;;;10.40;94.20;;;;;;5008398;28;20088;-79
2021/12/30 03:51:42;;;;;;;5.05;0.95;;;10.40;94.20;;;;;;5020894;28;20462;-78
2021/12/30 03:54:08;;;;;;;4.07;0.93;;;10.40;94.20;;;;;;4991251;28;20114;-78
2021/12/30 03:56:35;;;;;;;6.18;1.60;;;10.40;94.20;;;;;;5019154;28;20041;-78
2021/12/30 03:59:00;;;;;;;4.53;1.00;;;10.30;94.20;;;;;;5001769;28;20057;-78
2021/12/30 04:01:26;;;;;;;6.15;1.30;;;10.30;94.20;;;;;;5005637;28;20069;-78
2021/12/30 04:03:52;;;;;;;3.03;0.90;;;10.30;94.20;;;;;;5004081;28;20036;-78
2021/12/30 04:06:18;;;;;;;5.40;1.25;;;10.30;94.20;;;;;;5035564;28;20037;-78
2021/12/30 04:08:43;;;;;;;3.78;1.05;;;10.30;94.20;;;;;;5001989;28;20447;-78
2021/12/30 04:11:09;;;;;;;3.42;0.80;;;10.30;94.20;;;;;;5016765;28;20081;-79
2021/12/30 04:13:35;;;;;;;4.65;1.48;;;10.30;94.20;;;;;;5006214;28;20541;-78
2021/12/30 04:16:01;;;;;;;2.55;1.02;;;10.30;94.20;;;;;;4995137;28;20121;-79
2021/12/30 04:18:26;;;;;;;5.55;1.55;;;10.30;94.20;;;;;;5023522;28;20041;-79
2021/12/30 04:20:52;;;;;;;6.47;1.00;;;10.30;94.20;;;;;;5009894;28;20038;-78
2021/12/30 04:23:18;;;;;;;3.13;1.10;;;10.40;94.20;;;;;;5019814;28;20045;-78
2021/12/30 04:25:43;;;;;;;6.88;1.35;;;10.40;94.10;;;;;;5013594;28;20040;-79
2021/12/30 04:28:09;;;;;;;3.63;1.40;;;10.40;94.10;;;;;;5016754;28;20047;-78
2021/12/30 04:30:36;;;;;;;4.43;0.88;;;10.40;94.10;;;;;;5020338;28;20039;-78
2021/12/30 04:33:01;;;;;;;6.38;1.33;;;10.40;94.10;;;;;;4996170;28;20143;-78
2021/12/30 04:35:27;;;;;;;7.25;1.05;;;10.40;94.10;;;;;;5016931;28;20049;-78
2021/12/30 04:37:52;;;;;;;4.18;1.10;;;10.40;94.10;;;;;;5019494;28;20029;-78
2021/12/30 04:40:18;;;;;;;2.70;0.85;;;10.40;94.10;;;;;;4997683;28;20037;-78
2021/12/30 04:42:44;;;;;;;6.32;1.98;;;10.40;94.10;;;;;;5024106;28;20021;-78
2021/12/30 04:45:11;;;;;;;9.93;3.97;;;10.40;94.10;;;;;;5002307;28;20041;-79
2021/12/30 04:47:38;;;;;;;10.07;5.72;;;10.40;94.10;;;;;;5017512;28;20029;-78
2021/12/30 04:50:11;;;;;;;6.43;1.15;;;10.40;94.10;;;;;;5016224;28;20025;-79
2021/12/30 04:52:37;;;;;;;3.40;0.93;;;10.40;94.00;;;;;;5002683;28;20029;-78
2021/12/30 04:55:03;;;;;;;9.63;5.13;;;10.40;94.40;;;;;;5018536;28;20033;-78
2021/12/30 04:57:28;;;;;;;4.88;1.50;;;10.40;94.10;;;;;;5014103;28;20079;-78
2021/12/30 04:59:54;;;;;;;6.35;2.47;;;10.30;94.10;;;;;;5021224;28;20028;-78
2021/12/30 05:02:20;;;;;;;6.35;2.35;;;10.30;94.10;;;;;;5021379;28;20025;-79
2021/12/30 05:04:46;;;;;;;6.15;2.22;;;10.30;94.10;;;;;;5040267;28;20599;-78
2021/12/30 05:07:11;;;;;;;3.40;0.93;;;10.30;94.10;;;;;;5017159;28;20033;-77
2021/12/30 05:09:37;;;;;;;3.40;0.90;;;10.30;94.10;;;;;;5018279;28;20032;-78
2021/12/30 05:12:02;;;;;;;7.78;1.20;;;10.30;94.10;;;;;;5008598;28;20049;-79
2021/12/30 05:14:28;;;;;;;2.78;1.70;;;10.30;94.20;;;;;;5018141;28;20970;-78
2021/12/30 05:16:55;;;;;;;5.28;0.95;;;10.30;94.20;;;;;;5016894;28;20034;-78
2021/12/30 05:19:21;;;;;;;5.28;1.08;;;10.30;94.20;;;;;;5022660;28;20036;-78
2021/12/30 05:21:46;;;;;;;3.53;0.95;;;10.30;94.20;;;;;;5019613;28;20036;-78
2021/12/30 05:24:12;;;;;;;5.30;1.50;;;10.30;94.20;;;;;;5018732;28;20048;-79
2021/12/30 05:26:37;;;;;;;2.30;0.88;;;10.40;94.30;;;;;;5013132;28;20029;-78
2021/12/30 05:29:03;;;;;;;2.90;0.93;;;10.40;94.30;;;;;;5017947;28;20033;-78
2021/12/30 05:31:29;;;;;;;3.08;1.13;;;10.40;94.30;;;;;;5038394;28;20067;-78
2021/12/30 05:33:54;;;;;;;5.10;1.00;;;10.40;94.30;;;;;;5017156;28;20037;-78
2021/12/30 05:36:20;;;;;;;3.88;0.90;;;10.40;94.30;;;;;;5008360;28;20037;-78
2021/12/30 05:38:46;;;;;;;4.65;0.90;;;10.40;94.30;;;;;;5004858;28;20568;-78
2021/12/30 05:41:11;;;;;;;2.72;0.90;;;10.40;94.30;;;;;;4999285;28;20553;-78
2021/12/30 05:43:37;;;;;;;6.03;1.10;;;10.40;94.50;;;;;;5016056;28;20764;-78
2021/12/30 05:46:02;;;;;;;2.47;0.70;;;10.40;94.30;;;;;;5015646;28;20128;-78
2021/12/30 05:48:28;;;;;;;6.07;0.90;;;10.40;94.30;;;;;;5015255;28;20037;-78
2021/12/30 05:50:59;;;;;;;8.48;1.40;;;10.40;94.30;;;;;;5016498;28;20043;-78
2021/12/30 05:53:26;;;;;;;3.65;0.70;;;10.40;94.30;;;;;;5001316;28;20107;-78
2021/12/30 05:55:52;;;;;;;3.42;0.88;;;10.40;94.30;;;;;;5000438;28;20044;-78
2021/12/30 05:58:17;;;;;;;3.50;0.90;;;10.40;94.30;;;;;;5034382;28;20037;-78
2021/12/30 06:00:44;;;;;;;3.33;0.70;;;10.40;94.30;;;;;;5028633;28;20039;-78
2021/12/30 06:03:09;;;;;;;4.03;1.10;;;10.30;94.30;;;;;;5023291;28;20045;-79
2021/12/30 06:05:35;;;;;;;6.47;1.42;;;10.30;94.30;;;;;;5033746;28;20044;-78
2021/12/30 06:08:00;;;;;;;7.88;1.35;;;10.40;94.40;;;;;;5020110;28;20030;-78
2021/12/30 06:10:26;;;;;;;3.53;0.90;;;10.40;94.40;;;;;;5022750;28;20137;-78
2021/12/30 06:12:52;;;;;;;7.63;1.33;;;10.40;94.50;;;;;;5018327;28;20048;-78
2021/12/30 06:15:18;;;;;;;5.60;1.10;;;10.40;94.50;;;;;;5007335;28;20029;-78
2021/12/30 06:17:44;;;;;;;2.80;1.00;;;10.40;94.50;;;;;;5011533;28;20124;-78
2021/12/30 06:20:13;;;;;;;5.45;0.88;;;10.40;94.60;;;;;;5026020;28;20713;-79
2021/12/30 06:22:39;;;;;;;2.95;0.80;;;10.40;94.60;;;;;;5025837;28;20113;-78
2021/12/30 06:25:04;;;;;;;6.63;1.23;;;10.50;94.60;;;;;;5006697;28;20148;-79
2021/12/30 06:27:30;;;;;;;4.45;1.00;;;10.50;94.70;;;;;;4992321;28;20112;-78
2021/12/30 06:29:56;;;;;;;6.30;2.73;;;10.50;94.70;;;;;;5002550;28;20029;-78
2021/12/30 06:32:21;;;;;;;4.20;1.05;;;10.50;94.70;;;;;;5017938;28;20413;-79
2021/12/30 06:34:47;;;;;;;3.50;0.80;;;10.50;94.70;;;;;;5022370;28;20835;-79
2021/12/30 06:37:12;;;;;;;6.38;0.93;;;10.50;94.70;;;;;;5004812;28;20047;-78
2021/12/30 06:39:38;;;;;;;5.43;1.00;;;10.50;94.70;;;;;;5021872;28;20037;-79
2021/12/30 06:42:04;;;;;;;8.10;1.20;;;10.50;95.10;;;;;;5031040;28;20115;-79
2021/12/30 06:44:29;;;;;;;3.20;0.93;;;10.60;94.80;;;;;;5024295;28;20041;-79
2021/12/30 06:46:59;;;;;;;6.30;1.73;;;10.60;94.80;;;;;;5018381;28;20407;-79
2021/12/30 06:49:25;;;;;;;6.68;2.70;;;10.60;94.90;;;;;;5007199;28;20029;-79
2021/12/30 06:51:50;;;;;;;4.65;2.35;;;10.60;94.90;;;;;;4987673;28;20034;-80
2021/12/30 06:54:16;;;;;;;3.70;2.00;;;10.60;94.90;;;;;;5002722;28;20369;-79
2021/12/30 06:56:42;;;;;;;6.53;2.13;;;10.60;94.90;;;;;;4996629;28;20151;-80
2021/12/30 06:59:07;;;;;;;6.18;1.15;;;10.60;94.90;;;;;;5015934;28;20750;-79
2021/12/30 07:01:33;;;;;;;6.22;1.10;;;10.70;94.90;;;;;;4998040;28;20049;-79
2021/12/30 07:03:58;;;;;;;4.18;1.25;;;10.70;94.90;;;;;;4993469;28;20090;-80
2021/12/30 07:06:24;;;;;;;6.82;2.50;;;10.70;95.00;;;;;;5017438;28;20144;-79
2021/12/30 07:08:50;;;;;;;3.17;1.67;;;10.70;95.00;;;;;;5014933;28;20041;-80
2021/12/30 07:11:15;;;;;;;4.80;1.40;;;10.70;95.00;;;;;;5021398;28;20041;-79
2021/12/30 07:13:41;;;;;;;5.88;1.40;;;10.70;95.00;;;;;;5020972;28;20223;-80
2021/12/30 07:16:06;;;;;;;7.38;3.88;;;10.70;95.00;;;;;;5017333;28;22004;-79
2021/12/30 07:18:32;;;;;;;8.50;3.30;;;10.70;95.00;;;;;;5012872;28;20059;-79
2021/12/30 07:20:58;;;;;;;9.07;4.80;;;10.70;95.00;;;;;;5016568;28;20120;-79
2021/12/30 07:23:23;;;;;;;8.95;4.20;;;10.70;95.10;;;;;;5020327;28;20571;-80
2021/12/30 07:25:49;;;;;;;8.25;3.50;;;10.70;95.10;;;;;;4994524;28;20044;-79
2021/12/30 07:28:14;;;;;;;6.35;3.38;;;10.70;95.10;;;;;;5039913;28;20049;-79
2021/12/30 07:30:40;;;;;;;6.18;3.03;;;10.70;95.10;;;;;;5019624;28;20050;-79
2021/12/30 07:33:07;;;;;;;6.72;3.40;;;10.70;95.10;;;;;;5021359;28;20128;-80
2021/12/30 07:35:33;;;;;;;3.30;3.00;;;10.70;95.10;;;;;;5006861;28;20498;-80
2021/12/30 07:37:59;;;;;;;3.67;2.55;;;10.70;95.10;;;;;;5025125;28;20055;-79
2021/12/30 07:40:24;;;;;;;3.60;2.63;;;10.70;95.10;;;;;;5028095;28;20669;-80
2021/12/30 07:42:50;;;;;;;4.38;2.22;;;10.70;95.10;;;;;;5022817;28;20052;-79
2021/12/30 07:45:15;;;;;;;4.10;2.17;;;10.70;95.10;;;;;;5009793;28;20595;-80
2021/12/30 07:47:41;;;;;;;2.65;2.42;;;10.70;95.10;;;;;;5028395;28;20503;-79
2021/12/30 07:50:07;;;;;;;2.47;1.75;;;10.70;95.10;;;;;;5018266;28;20037;-80
2021/12/30 07:52:34;;;;;;;2.17;1.98;;;10.70;95.20;;;;;;5000886;28;20047;-79
2021/12/30 07:55:00;;;;;;;3.85;2.83;;;10.70;95.20;;;;;;5017654;28;20472;-79
2021/12/30 07:57:25;;;;;;;2.55;2.30;;;10.70;95.20;;;;;;5012714;28;20929;-80
2021/12/30 07:59:52;;;;;;;3.15;2.00;;;10.70;95.20;;;;;;5020247;28;20033;-79
2021/12/30 08:02:17;;;;;;;3.20;1.95;;;10.80;95.30;;;;;;5005744;28;20041;-79
2021/12/30 08:04:43;;;;;;;4.20;2.10;;;10.80;95.30;;;;;;5017230;28;20044;-79
2021/12/30 08:07:08;;;;;;;4.28;2.70;;;10.80;95.30;;;;;;5004875;28;20425;-79
2021/12/30 08:09:34;;;;;;;9.00;3.83;;;10.90;95.30;;;;;;5033993;28;20079;-79
2021/12/30 08:12:00;;;;;;;3.33;2.00;;;10.90;95.30;;;;;;5028637;28;20723;-79
2021/12/30 08:14:29;;;;;;;1.92;1.38;;;10.90;95.40;;;;;;5032691;28;20052;-79
2021/12/30 08:16:54;;;;;;;1.83;0.60;;;11.00;95.40;;;;;;5007376;28;20125;-79
2021/12/30 08:19:20;;;;;;;0.50;0.50;;;11.00;95.40;;;;;;4981009;28;20720;-79
2021/12/30 08:21:45;;;;;;;0.50;0.43;;;11.10;95.50;;;;;;5030902;28;20042;-79
2021/12/30 08:24:11;;;;;;;1.00;0.77;;;11.10;95.50;;;;;;5019750;28;20049;-79
2021/12/30 08:26:37;;;;;;;1.00;0.63;;;11.10;95.50;;;;;;4996866;28;20503;-79
2021/12/30 08:29:03;;;;;;;1.23;0.70;;;11.20;95.50;;;;;;5018033;28;20048;-79
2021/12/30 08:31:28;;;;;;;1.63;0.60;;;11.30;95.60;;;;;;5013826;28;20057;-79
2021/12/30 08:33:54;;;;;;;0.60;0.60;;;11.40;95.60;;;;;;5020326;28;20065;-80
2021/12/30 08:36:19;;;;;;;0.80;0.60;;;11.40;95.60;;;;;;4985033;28;20025;-80
2021/12/30 08:38:45;;;;;;;0.75;0.50;;;11.50;95.60;;;;;;5020218;28;20041;-79
2021/12/30 08:41:11;;;;;;;1.27;0.70;;;11.50;95.60;;;;;;5019225;28;20034;-80
2021/12/30 08:43:36;;;;;;;0.73;0.60;;;11.50;95.60;;;;;;5015138;28;20557;-79
2021/12/30 08:46:02;;;;;;;1.80;0.80;;;11.60;95.70;;;;;;5016369;28;20033;-78
2021/12/30 08:48:27;;;;;;;1.15;0.50;;;11.60;95.70;;;;;;5019208;28;20102;-78
2021/12/30 08:50:53;;;;;;;1.67;0.73;;;11.70;95.70;;;;;;4986905;28;20043;-79
2021/12/30 08:53:18;;;;;;;0.60;0.60;;;11.70;95.70;;;;;;5010275;28;20674;-78
2021/12/30 08:55:44;;;;;;;1.50;0.88;;;11.80;95.70;;;;;;5028774;28;20048;-77
2021/12/30 08:58:10;;;;;;;0.60;0.60;;;11.80;95.80;;;;;;4996875;28;20145;-78
2021/12/30 09:00:38;;;;;;;0.70;0.70;;;11.90;95.80;;;;;;5026466;28;20028;-78
2021/12/30 09:03:04;;;;;;;0.73;0.60;;;11.90;95.80;;;;;;5021718;28;20045;-78
2021/12/30 09:05:33;;;;;;;1.48;0.55;;;12.00;95.80;;;;;;5033275;28;20527;-79
2021/12/30 09:07:59;;;;;;;0.70;0.70;;;12.10;95.80;;;;;;5024442;28;21440;-78
2021/12/30 09:10:24;;;;;;;0.70;0.70;;;12.10;95.80;;;;;;5037458;28;20139;-81
2021/12/30 09:12:50;;;;;;;2.45;0.60;;;12.20;95.80;;;;;;5026190;28;20029;-78
2021/12/30 09:15:16;;;;;;;1.23;0.80;;;12.20;95.80;;;;;;5018715;28;20120;-78
2021/12/30 09:17:43;;;;;;;0.60;0.60;;;12.20;95.80;;;;;;5048060;28;20033;-78
2021/12/30 09:20:10;;;;;;;0.60;0.60;;;12.20;95.80;;;;;;5020602;28;20033;-78
2021/12/30 09:22:35;;;;;;;1.73;0.50;;;12.20;95.80;;;;;;5039140;28;20599;-78
2021/12/30 09:25:05;;;;;;;2.80;0.60;;;12.30;95.90;;;;;;5051230;28;20064;-78
2021/12/30 09:27:32;;;;;;;0.40;0.40;;;12.40;95.90;;;;;;5020655;28;20078;-78
2021/12/30 09:29:59;;;;;;;0.30;0.30;;;12.40;95.90;;;;;;5020723;28;20108;-79
2021/12/30 09:32:24;;;;;;;0.60;0.60;;;12.40;96.20;;;;;;5024233;28;20049;-79
2021/12/30 09:34:50;;;;;;;0.50;0.50;;;12.50;95.90;;;;;;5020410;28;20044;-78
2021/12/30 09:37:15;;;;;;;0.30;0.30;;;12.50;95.90;;;;;;5003583;28;20087;-78
2021/12/30 09:39:41;;;;;;;0.43;0.43;;;12.60;95.90;;;;;;5015858;28;20103;-78
2021/12/30 09:42:07;;;;;;;0.80;0.50;;;12.60;95.90;;;;;;5036865;28;20128;-79
2021/12/30 09:44:32;;;;;;;0.40;0.40;;;12.60;95.90;;;;;;4999444;28;20041;-78
2021/12/30 09:46:58;;;;;;;0.50;0.43;;;12.70;95.90;;;;;;5003637;28;20060;-78
2021/12/30 09:49:24;;;;;;;0.40;0.40;;;12.70;95.90;;;;;;5007099;28;20121;-78
2021/12/30 09:51:50;;;;;;;0.73;0.40;;;12.80;95.90;;;;;;5018251;28;20542;-79
2021/12/30 09:54:16;;;;;;;0.30;0.30;;;12.80;95.80;;;;;;5023586;28;20040;-78
2021/12/30 09:56:42;;;;;;;1.25;0.70;;;12.80;95.80;;;;;;5002092;28;20431;-80
2021/12/30 09:59:08;;;;;;;0.40;0.40;;;12.90;95.80;;;;;;5002346;28;20033;-78
2021/12/30 10:01:35;;;;;;;0.52;0.52;;;12.90;95.80;;;;;;5018719;28;20039;-79
2021/12/30 10:04:01;;;;;;;0.40;0.40;;;12.90;95.80;;;;;;5043740;28;21449;-79
2021/12/30 10:06:27;;;;;;;1.67;0.40;;;12.90;95.80;;;;;;5019110;28;20046;-78
2021/12/30 10:08:57;;;;;;;0.40;0.40;;;13.00;95.80;;;;;;5009283;28;20033;-79
2021/12/30 10:11:23;;;;;;;0.55;0.40;;;13.00;95.80;;;;;;4987199;28;20045;-79
2021/12/30 10:13:50;;;;;;;0.80;0.70;;;13.00;95.80;;;;;;4985951;28;20044;-80
2021/12/30 10:16:17;;;;;;;0.60;0.60;;;13.00;95.70;;;;;;5031944;28;20467;-80
2021/12/30 10:18:47;;;;;;;1.83;0.80;;;13.10;95.70;;;;;;5002463;28;20450;-79
2021/12/30 10:21:17;;;;;;;0.40;0.40;;;13.10;95.70;;;;;;5038921;28;20689;-79
2021/12/30 10:23:45;;;;;;;0.90;0.32;;;13.10;95.70;;;;;;5014222;28;20096;-79
2021/12/30 10:26:10;;;;;;;1.70;0.40;;;13.10;95.60;;;;;;4993700;28;20079;-79
2021/12/30 10:28:37;;;;;;;0.95;0.50;;;13.20;95.70;;;;;;4996872;28;20128;-79
2021/12/30 10:31:11;;;;;;;1.02;0.80;;;13.20;95.70;;;;;;5010215;28;20045;-79
2021/12/30 10:33:37;;;;;;;0.50;0.50;;;13.30;95.70;;;;;;5034495;28;20121;-79
2021/12/30 10:36:13;;;;;;;0.40;0.40;;;13.30;95.60;;;;;;5018376;28;20036;-79
2021/12/30 10:38:38;;;;;;;0.88;0.88;;;13.40;95.60;;;;;;5004632;28;20535;-79
2021/12/30 10:41:04;;;;;;;2.63;1.73;;;13.50;95.60;;;;;;5036247;28;20044;-78
2021/12/30 10:46:17;;;;;;;0.52;0.52;;;13.50;95.50;;;;;;5026977;28;20463;-80
2021/12/30 10:48:50;;;;;;;1.10;0.80;;;13.50;95.40;;;;;;5041178;28;20040;-79
2021/12/30 10:51:21;;;;;;;1.85;0.50;;;13.60;95.40;;;;;;5022759;28;20101;-79
2021/12/30 10:53:47;;;;;;;0.98;0.70;;;13.60;95.40;;;;;;5024524;28;20064;-79
2021/12/30 10:56:35;;;;;;;0.50;0.40;;;13.60;95.30;;;;;;5012248;28;20079;-80
2021/12/30 10:59:22;;;;;;;0.47;0.40;;;13.60;95.30;;;;;;5018035;28;20045;-78
2021/12/30 11:01:50;;;;;;;0.40;0.30;;;13.70;95.20;;;;;;5021175;28;20084;-79
2021/12/30 11:04:17;;;;;;;0.38;0.30;;;13.70;95.20;;;;;;5011625;28;20044;-79
2021/12/30 11:06:42;;;;;;;0.55;0.40;;;13.70;95.20;;;;;;5025535;28;20797;-79
2021/12/30 11:09:09;;;;;;;0.20;0.20;;;13.70;95.10;;;;;;5020807;28;20051;-79
2021/12/30 11:11:35;;;;;;;0.63;0.60;;;13.70;95.10;;;;;;5022267;28;20037;-79
2021/12/30 11:14:06;;;;;;;0.30;0.30;;;13.70;95.00;;;;;;4981115;28;20041;-80
2021/12/30 11:16:33;;;;;;;0.88;0.40;;;13.70;95.00;;;;;;5033195;28;20037;-80
2021/12/30 11:18:58;;;;;;;0.93;0.70;;;13.70;94.90;;;;;;5005729;28;20041;-79
2021/12/30 11:21:40;;;;;;;0.45;0.43;;;13.80;95.00;;;;;;5038013;28;20666;-79
2021/12/30 11:24:07;;;;;;;0.40;0.40;;;13.80;94.90;;;;;;5020534;28;20061;-81
2021/12/30 11:26:32;;;;;;;0.40;0.40;;;13.80;94.90;;;;;;5002369;28;20441;-80
2021/12/30 11:28:59;;;;;;;0.30;0.30;;;13.80;94.80;;;;;;5030286;28;20037;-79
2021/12/30 11:31:24;;;;;;;0.47;0.47;;;13.80;94.80;;;;;;5002297;28;21154;-80
2021/12/30 11:33:50;;;;;;;0.73;0.40;;;13.80;94.80;;;;;;5023755;28;20044;-79
2021/12/30 11:36:18;;;;;;;0.73;0.32;;;13.80;94.70;;;;;;5027776;28;20040;-79
2021/12/30 11:38:44;;;;;;;0.93;0.43;;;13.80;94.70;;;;;;5022041;28;20514;-79
2021/12/30 11:41:19;;;;;;;0.45;0.45;;;13.80;94.70;;;;;;5018664;28;20044;-79
2021/12/30 11:43:46;;;;;;;0.63;0.63;;;13.80;94.70;;;;;;5027555;28;20059;-79
2021/12/30 11:46:39;;;;;;;1.73;1.40;;;13.80;94.70;;;;;;5006432;28;20033;-79
2021/12/30 11:49:05;;;;;;;1.40;1.30;;;13.90;94.70;;;;;;5038241;28;20133;-80
2021/12/30 11:51:44;;;;;;;1.15;1.00;;;13.90;94.70;;;;;;4990090;28;20041;-79
2021/12/30 11:54:32;;;;;;;2.40;1.40;;;13.90;94.60;;;;;;5031836;28;20040;-79
2021/12/30 11:57:29;;;;;;;2.05;1.40;;;13.90;94.60;;;;;;5033502;28;20056;-78
2021/12/30 11:59:56;;;;;;;1.52;1.20;;;14.00;94.60;;;;;;5034693;28;20037;-79
2021/12/30 12:02:35;;;;;;;2.35;2.13;;;14.00;94.60;;;;;;4981017;28;20125;-79
2021/12/30 12:05:42;;;;;;;3.25;2.42;;;14.00;94.50;;;;;;4994113;28;20042;-78
2021/12/30 12:08:09;;;;;;;2.63;1.77;;;14.00;94.50;;;;;;5033773;28;20159;-79
2021/12/30 12:10:35;;;;;;;1.30;1.20;;;14.00;94.40;;;;;;5032646;28;20403;-79
2021/12/30 12:13:35;;;;;;;0.70;0.70;;;14.10;94.40;;;;;;5016433;28;20037;-78
2021/12/30 12:16:01;;;;;;;2.13;1.30;;;14.10;94.40;;;;;;5016663;28;20095;-79
2021/12/30 12:18:27;;;;;;;3.78;2.50;;;14.10;94.40;;;;;;5019279;28;20029;-80
2021/12/30 12:20:53;;;;;;;0.95;0.95;;;14.10;94.40;;;;;;5020232;28;20037;-79
2021/12/30 12:23:36;;;;;;;2.03;0.70;;;14.10;94.30;;;;;;5005079;28;20029;-79
2021/12/30 12:26:06;;;;;;;1.95;0.60;;;14.10;94.30;;;;;;5005017;28;20029;-79
2021/12/30 12:28:32;;;;;;;0.95;0.77;;;14.20;94.30;;;;;;5023364;28;20033;-78
2021/12/30 12:30:57;;;;;;;0.57;0.57;;;14.20;94.20;;;;;;5018474;28;20033;-79
2021/12/30 12:33:25;;;;;;;1.70;0.50;;;14.20;94.20;;;;;;5041108;28;20030;-79
2021/12/30 12:35:50;;;;;;;0.63;0.63;;;14.20;94.20;;;;;;4977309;28;20126;-79
2021/12/30 12:38:16;;;;;;;0.70;0.70;;;14.20;94.10;;;;;;5004570;28;20104;-79
2021/12/30 12:40:43;;;;;;;1.23;0.70;;;14.20;94.10;;;;;;4990731;28;20159;-79
2021/12/30 12:43:23;;;;;;;3.60;1.02;;;14.20;94.10;;;;;;5019849;28;20036;-79
2021/12/30 12:45:49;;;;;;;1.38;1.00;;;14.20;94.00;;;;;;5010756;28;20127;-79
2021/12/30 12:48:17;;;;;;;1.05;0.98;;;14.30;94.00;;;;;;5043487;28;20100;-78
2021/12/30 12:50:44;;;;;;;0.80;0.73;;;14.30;94.00;;;;;;5032834;28;20383;-80